createdAt,value
2023-02-09T00:01:09.909Z,85.37
2023-02-09T00:03:57.634Z,85.21
2023-02-09T00:06:44.038Z,85.14
2023-02-09T00:09:31.056Z,85.22
2023-02-09T00:12:37.526Z,85.28
2023-02-09T00:15:23.945Z,85.35
2023-02-09T00:18:10.642Z,85.30
2023-02-09T00:21:04.038Z,85.19
2023-02-09T00:23:50.770Z,85.05
2023-02-09T00:26:37.629Z,84.95
2023-02-09T00:29:24.344Z,85.04
2023-02-09T00:32:10.907Z,85.18
2023-02-09T00:34:57.784Z,85.15
2023-02-09T00:37:44.419Z,85.20
2023-02-09T00:40:30.920Z,85.32
2023-02-09T00:43:17.763Z,85.31
2023-02-09T00:46:04.862Z,85.35
2023-02-09T00:48:51.605Z,85.41
2023-02-09T00:51:39.514Z,85.44
2023-02-09T00:54:26.085Z,85.55
2023-02-09T00:57:14.147Z,85.63
2023-02-09T01:00:00.453Z,85.74
2023-02-09T01:02:47.830Z,85.81
2023-02-09T01:05:34.559Z,85.80
2023-02-09T01:08:21.063Z,85.74
2023-02-09T01:11:09.949Z,85.77
2023-02-09T01:13:58.792Z,85.91
2023-02-09T01:16:45.355Z,86.05
2023-02-09T01:19:33.282Z,86.03
2023-02-09T01:22:20.274Z,86.01
2023-02-09T01:25:08.164Z,86.17
2023-02-09T01:27:54.556Z,86.29
2023-02-09T01:30:41.057Z,86.20
2023-02-09T01:33:27.809Z,86.25
2023-02-09T01:36:14.560Z,86.15
2023-02-09T01:39:03.946Z,86.09
2023-02-09T01:41:51.016Z,86.02
2023-02-09T01:44:37.392Z,86.13
2023-02-09T01:47:24.107Z,86.33
2023-02-09T01:50:11.750Z,86.30
2023-02-09T01:52:58.450Z,86.29
2023-02-09T01:55:53.008Z,86.31
2023-02-09T01:58:39.925Z,86.29
2023-02-09T02:01:26.865Z,86.19
2023-02-09T02:04:13.857Z,86.21
2023-02-09T02:07:09.628Z,86.16
2023-02-09T02:09:56.368Z,85.76
2023-02-09T02:12:43.796Z,85.54
2023-02-09T02:15:41.103Z,85.47
2023-02-09T02:18:48.872Z,85.33
2023-02-09T02:21:56.651Z,85.31
2023-02-09T02:24:43.279Z,85.23
2023-02-09T02:27:42.256Z,85.10
2023-02-09T02:30:55.130Z,84.94
2023-02-09T02:33:48.516Z,84.76
2023-02-09T02:36:52.294Z,84.44
2023-02-09T02:40:10.670Z,84.22
2023-02-09T02:43:07.599Z,84.39
2023-02-09T02:46:00.746Z,84.21
2023-02-09T02:49:10.628Z,83.93
2023-02-09T02:52:02.671Z,84.03
2023-02-09T02:55:00.915Z,83.83
2023-02-09T02:57:53.708Z,83.65
2023-02-09T03:00:46.996Z,83.56
2023-02-09T03:03:36.813Z,83.52
2023-02-09T03:06:23.425Z,83.57
2023-02-09T03:09:10.251Z,83.38
2023-02-09T03:12:14.087Z,83.26
2023-02-09T03:15:22.868Z,83.19
2023-02-09T03:18:12.446Z,83.27
2023-02-09T03:21:03.854Z,83.52
2023-02-09T03:24:24.806Z,83.55
2023-02-09T03:27:37.141Z,83.42
2023-02-09T03:30:25.139Z,83.41
2023-02-09T03:33:23.750Z,83.35
2023-02-09T03:36:16.951Z,83.48
2023-02-09T03:39:05.596Z,83.34
2023-02-09T03:41:52.158Z,83.27
2023-02-09T03:44:38.892Z,83.13
2023-02-09T03:47:25.406Z,83.16
2023-02-09T03:50:12.237Z,83.19
2023-02-09T03:52:59.696Z,83.13
2023-02-09T03:55:47.273Z,83.12
2023-02-09T03:58:36.209Z,83.21
2023-02-09T04:01:22.391Z,83.16
2023-02-09T04:04:08.848Z,83.05
2023-02-09T04:06:56.320Z,82.79
2023-02-09T04:09:42.678Z,82.90
2023-02-09T04:12:29.816Z,83.05
2023-02-09T04:15:16.446Z,82.97
2023-02-09T04:18:03.253Z,82.71
2023-02-09T04:20:49.787Z,82.81
2023-02-09T04:23:37.059Z,82.93
2023-02-09T04:26:24.056Z,82.87
2023-02-09T04:29:10.848Z,82.82
2023-02-09T04:31:57.779Z,82.80
2023-02-09T04:34:44.333Z,82.78
2023-02-09T04:37:31.135Z,82.77
2023-02-09T04:40:18.116Z,82.88
2023-02-09T04:43:04.777Z,82.76
2023-02-09T04:45:51.900Z,82.69
2023-02-09T04:48:38.672Z,82.61
2023-02-09T04:51:25.709Z,82.72
2023-02-09T04:54:12.100Z,82.68
2023-02-09T04:57:17.824Z,82.34
2023-02-09T05:00:05.121Z,82.22
2023-02-09T05:02:51.537Z,82.11
2023-02-09T05:05:42.260Z,82.11
2023-02-09T05:08:29.765Z,82.25
2023-02-09T05:11:17.828Z,82.30
2023-02-09T05:14:04.745Z,82.55
2023-02-09T05:16:51.594Z,82.77
2023-02-09T05:19:38.117Z,83.02
2023-02-09T05:22:25.046Z,83.03
2023-02-09T05:25:37.998Z,82.84
2023-02-09T05:28:25.289Z,82.84
2023-02-09T05:31:12.081Z,82.92
2023-02-09T05:34:01.286Z,83.01
2023-02-09T05:36:47.845Z,83.13
2023-02-09T05:39:34.178Z,83.29
2023-02-09T05:42:20.986Z,83.38
2023-02-09T05:45:08.814Z,83.50
2023-02-09T05:47:55.663Z,83.52
2023-02-09T05:50:42.335Z,83.78
2023-02-09T05:53:29.084Z,83.94
2023-02-09T05:56:15.887Z,84.21
2023-02-09T05:59:04.484Z,84.42
2023-02-09T06:01:51.646Z,84.54
2023-02-09T06:04:38.158Z,84.54
2023-02-09T06:07:27.306Z,84.52
2023-02-09T06:10:14.321Z,84.51
2023-02-09T06:13:01.004Z,84.69
2023-02-09T06:15:47.752Z,84.74
2023-02-09T06:18:34.486Z,84.71
2023-02-09T06:21:21.468Z,84.66
2023-02-09T06:24:08.285Z,84.85
2023-02-09T06:26:56.362Z,84.99
2023-02-09T06:29:42.950Z,84.97
2023-02-09T06:32:29.928Z,85.02
2023-02-09T06:35:16.493Z,84.96
2023-02-09T06:38:03.130Z,84.77
2023-02-09T06:40:51.944Z,84.74
2023-02-09T06:43:38.779Z,84.78
2023-02-09T06:46:26.466Z,84.87
2023-02-09T06:49:13.305Z,84.85
2023-02-09T06:52:00.124Z,84.73
2023-02-09T06:54:46.910Z,84.55
2023-02-09T06:57:34.883Z,84.23
2023-02-09T07:00:22.195Z,83.67
2023-02-09T07:03:11.240Z,83.34
2023-02-09T07:06:05.854Z,82.90
2023-02-09T07:08:52.773Z,82.67
2023-02-09T07:11:40.061Z,82.28
2023-02-09T07:14:29.054Z,81.82
2023-02-09T07:17:16.155Z,81.13
2023-02-09T07:20:04.339Z,80.85
2023-02-09T07:22:51.494Z,80.26
2023-02-09T07:25:38.827Z,80.02
2023-02-09T07:28:27.753Z,79.42
2023-02-09T07:31:16.549Z,79.58
2023-02-09T07:34:03.079Z,78.98
2023-02-09T07:36:50.000Z,78.54
2023-02-09T07:39:36.772Z,78.04
2023-02-09T07:42:23.861Z,77.51
2023-02-09T07:45:10.906Z,76.99
2023-02-09T07:47:57.696Z,76.63
2023-02-09T07:50:51.381Z,76.20
2023-02-09T07:53:38.440Z,75.69
2023-02-09T07:56:25.754Z,75.08
2023-02-09T07:59:12.123Z,74.39
2023-02-09T08:01:58.940Z,73.36
2023-02-09T08:04:46.776Z,72.91
2023-02-09T08:07:33.959Z,71.35
2023-02-09T08:10:20.883Z,71.01
2023-02-09T08:13:09.271Z,71.05
2023-02-09T08:16:04.990Z,71.00
2023-02-09T08:18:58.547Z,70.33
2023-02-09T08:21:48.898Z,69.87
2023-02-09T08:24:35.774Z,69.58
2023-02-09T08:27:23.235Z,69.88
2023-02-09T08:32:40.714Z,69.67
2023-02-09T08:35:30.748Z,68.35
2023-02-09T08:38:17.970Z,67.10
2023-02-09T08:41:10.160Z,67.22
2023-02-09T08:43:57.144Z,66.24
2023-02-09T08:46:46.931Z,65.72
2023-02-09T08:49:35.489Z,65.64
2023-02-09T08:52:23.727Z,65.84
2023-02-09T08:55:11.077Z,66.21
2023-02-09T08:57:57.857Z,66.30
2023-02-09T09:00:45.829Z,66.05
2023-02-09T09:03:33.453Z,64.41
2023-02-09T09:06:22.233Z,63.68
2023-02-09T09:09:09.081Z,63.76
2023-02-09T09:15:10.230Z,61.67
2023-02-09T09:17:56.942Z,61.72
2023-02-09T09:20:44.723Z,61.16
2023-02-09T09:23:31.480Z,61.24
2023-02-09T09:26:18.687Z,62.08
2023-02-09T09:29:05.528Z,62.24
2023-02-09T09:31:52.648Z,62.39
2023-02-09T09:34:41.540Z,61.98
2023-02-09T09:37:29.803Z,61.48
2023-02-09T09:40:29.852Z,61.02
2023-02-09T09:43:36.002Z,61.04
2023-02-09T09:46:37.231Z,61.29
2023-02-09T09:49:27.421Z,61.09
2023-02-09T09:52:17.599Z,60.33
2023-02-09T09:55:07.950Z,60.47
2023-02-09T09:58:03.030Z,58.46
2023-02-09T10:00:51.492Z,58.25
2023-02-09T10:03:38.113Z,57.96
2023-02-09T10:06:24.973Z,57.67
2023-02-09T10:09:37.123Z,57.19
2023-02-09T10:12:37.475Z,57.86
2023-02-09T10:15:31.528Z,57.71
2023-02-09T10:18:25.357Z,57.53
2023-02-09T10:21:16.407Z,56.74
2023-02-09T10:24:20.276Z,56.19
2023-02-09T10:27:13.306Z,56.18
2023-02-09T10:30:26.659Z,55.70
2023-02-09T10:33:16.198Z,55.24
2023-02-09T10:37:13.096Z,54.25
2023-02-09T10:39:41.815Z,53.73
2023-02-09T10:42:35.446Z,53.11
2023-02-09T10:45:32.245Z,51.70
2023-02-09T10:48:21.473Z,51.43
2023-02-09T10:51:16.056Z,51.70
2023-02-09T10:54:07.468Z,51.27
2023-02-09T10:56:53.956Z,50.97
2023-02-09T10:59:41.419Z,50.09
2023-02-09T11:02:41.999Z,48.57
2023-02-09T11:05:35.054Z,48.98
2023-02-09T11:08:24.473Z,50.11
2023-02-09T11:11:31.808Z,49.06
2023-02-09T11:14:20.300Z,48.53
2023-02-09T11:17:31.543Z,48.13
2023-02-09T11:20:44.158Z,46.96
2023-02-09T11:23:52.373Z,45.36
2023-02-09T11:26:47.870Z,45.01
2023-02-09T11:29:44.572Z,45.02
2023-02-09T11:32:54.685Z,44.33
2023-02-09T11:36:14.786Z,43.99
2023-02-09T11:39:12.049Z,43.49
2023-02-09T11:42:41.412Z,42.36
2023-02-09T11:45:33.977Z,40.37
2023-02-09T11:48:28.004Z,41.87
2023-02-09T11:51:19.702Z,42.60
2023-02-09T11:54:14.670Z,42.61
2023-02-09T11:57:07.798Z,41.80
2023-02-09T11:59:58.917Z,41.51
2023-02-09T12:02:59.209Z,40.87
2023-02-09T12:05:46.236Z,40.56
2023-02-09T12:08:55.101Z,40.75
2023-02-09T12:11:46.884Z,40.57
2023-02-09T12:15:24.608Z,39.96
2023-02-09T12:18:18.951Z,40.25
2023-02-09T12:21:07.328Z,41.43
2023-02-09T12:23:53.912Z,41.55
2023-02-09T12:26:44.279Z,42.20
2023-02-09T12:29:39.913Z,42.83
2023-02-09T12:32:42.943Z,44.05
2023-02-09T12:35:39.421Z,42.17
2023-02-09T12:38:49.555Z,41.08
2023-02-09T12:41:42.990Z,40.54
2023-02-09T12:44:29.614Z,41.08
2023-02-09T12:47:45.719Z,40.98
2023-02-09T12:50:35.311Z,41.72
2023-02-09T12:53:21.847Z,40.87
2023-02-09T12:56:11.463Z,41.61
2023-02-09T12:59:19.906Z,42.76
2023-02-09T13:02:06.670Z,42.04
2023-02-09T13:04:53.307Z,41.86
2023-02-09T13:08:15.947Z,41.58
2023-02-09T13:11:14.086Z,41.35
2023-02-09T13:14:07.469Z,41.05
2023-02-09T13:16:57.163Z,41.29
2023-02-09T13:20:11.869Z,42.09
2023-02-09T13:23:16.856Z,43.56
2023-02-09T13:26:26.010Z,44.79
2023-02-09T13:29:21.498Z,44.93
2023-02-09T13:32:17.666Z,45.47
2023-02-09T13:35:04.472Z,45.75
2023-02-09T13:37:59.564Z,44.97
2023-02-09T13:40:49.429Z,45.11
2023-02-09T13:43:39.250Z,44.71
2023-02-09T13:46:31.508Z,44.79
2023-02-09T13:49:21.904Z,44.81
2023-02-09T13:52:16.793Z,43.95
2023-02-09T13:55:19.188Z,43.66
2023-02-09T13:58:07.707Z,41.74
2023-02-09T14:01:15.753Z,39.81
2023-02-09T14:04:02.525Z,37.79
2023-02-09T14:06:52.099Z,36.51
2023-02-09T14:10:05.446Z,36.85
2023-02-09T14:13:14.878Z,35.66
2023-02-09T14:16:11.267Z,34.73
2023-02-09T14:20:21.762Z,34.53
2023-02-09T14:47:48.366Z,34.36
2023-02-09T15:01:42.474Z,39.49
2023-02-09T15:04:42.015Z,41.04
2023-02-09T15:07:35.616Z,42.63
2023-02-09T15:10:35.203Z,43.72
2023-02-09T15:13:23.600Z,44.89
2023-02-09T15:16:10.889Z,45.42
2023-02-09T15:18:58.016Z,45.81
2023-02-09T15:21:44.382Z,46.47
2023-02-09T15:24:32.242Z,47.15
2023-02-09T15:28:59.636Z,47.46
2023-02-09T15:31:47.626Z,47.92
2023-02-09T15:34:35.790Z,48.16
2023-02-09T15:37:31.814Z,48.56
2023-02-09T15:40:44.932Z,49.07
2023-02-09T15:43:51.929Z,49.15
2023-02-09T15:47:05.762Z,49.38
2023-02-09T15:49:52.536Z,49.47
2023-02-09T15:52:39.200Z,49.78
2023-02-09T15:55:27.245Z,50.05
2023-02-09T15:58:25.408Z,50.15
2023-02-09T16:01:16.935Z,50.42
2023-02-09T16:04:13.949Z,50.60
2023-02-09T16:07:03.655Z,50.64
2023-02-09T16:09:51.252Z,50.72
2023-02-09T16:12:38.119Z,50.94
2023-02-09T16:15:27.240Z,51.21
2023-02-09T16:18:14.756Z,51.34
2023-02-09T16:21:07.367Z,51.46
2023-02-09T16:23:59.291Z,51.56
2023-02-09T16:27:27.629Z,51.59
2023-02-09T16:30:20.566Z,51.40
2023-02-09T16:33:07.180Z,51.39
2023-02-09T16:35:57.187Z,51.66
2023-02-09T16:38:47.387Z,52.17
2023-02-09T16:41:48.325Z,52.34
2023-02-09T16:44:36.525Z,52.60
2023-02-09T16:47:28.692Z,52.80
2023-02-09T16:50:33.023Z,52.90
2023-02-09T16:53:32.903Z,53.34
2023-02-09T16:56:20.559Z,53.22
2023-02-09T16:59:12.790Z,53.19
2023-02-09T17:01:59.986Z,53.30
2023-02-09T17:04:46.619Z,53.38
2023-02-09T17:07:52.493Z,53.58
2023-02-09T17:10:40.719Z,53.52
2023-02-09T17:13:28.478Z,53.58
2023-02-09T17:16:54.172Z,53.54
2023-02-09T17:19:47.911Z,53.73
2023-02-09T17:22:33.970Z,53.95
2023-02-09T17:25:23.563Z,53.90
2023-02-09T17:28:27.350Z,54.37
2023-02-09T17:31:24.635Z,54.56
2023-02-09T17:34:16.283Z,54.81
2023-02-09T17:37:03.755Z,55.02
2023-02-09T17:39:50.039Z,55.18
2023-02-09T17:42:36.848Z,55.35
2023-02-09T17:45:26.896Z,55.76
2023-02-09T17:48:15.506Z,55.69
2023-02-09T17:52:16.726Z,55.84
2023-02-09T17:55:05.661Z,56.31
2023-02-09T17:57:57.453Z,56.31
2023-02-09T18:00:45.500Z,56.49
2023-02-09T18:03:31.070Z,56.73
2023-02-09T18:06:20.443Z,56.97
2023-02-09T18:09:12.678Z,57.13
2023-02-09T18:12:05.271Z,57.31
2023-02-09T18:16:19.878Z,57.50
2023-02-09T18:20:21.585Z,57.80
2023-02-09T18:23:13.686Z,57.98
2023-02-09T18:26:16.127Z,58.06
2023-02-09T18:29:31.838Z,58.01
2023-02-09T18:33:08.681Z,58.02
2023-02-09T19:00:29.943Z,58.27
2023-02-09T19:07:36.737Z,58.55
2023-02-09T20:24:45.470Z,59.53
2023-02-09T20:39:18.126Z,59.19
2023-02-09T20:43:07.486Z,59.64
2023-02-09T20:46:26.163Z,59.75
2023-02-09T21:01:32.368Z,59.48
2023-02-09T21:04:38.327Z,59.58
2023-02-09T21:07:56.806Z,60.01
2023-02-09T21:11:26.107Z,60.25
2023-02-09T21:15:57.747Z,60.01
2023-02-09T21:19:25.530Z,60.27
2023-02-09T22:02:15.504Z,59.95
2023-02-09T22:06:39.526Z,59.96
2023-02-09T22:22:09.241Z,60.12
2023-02-09T22:26:16.910Z,60.07
2023-02-09T22:30:13.366Z,60.40
2023-02-09T22:33:44.105Z,60.36
2023-02-09T22:37:00.936Z,60.45
2023-02-09T22:40:56.864Z,60.62
2023-02-09T22:45:16.730Z,60.72
2023-02-09T22:49:13.802Z,60.69
2023-02-09T22:52:35.553Z,60.68
2023-02-09T22:56:49.044Z,60.78
2023-02-09T23:06:07.982Z,60.89
2023-02-09T23:10:26.110Z,61.20
2023-02-09T23:13:52.843Z,61.12
2023-02-09T23:16:43.887Z,61.25
2023-02-09T23:19:30.723Z,61.33
2023-02-09T23:22:17.631Z,61.51
2023-02-09T23:25:04.108Z,61.50
2023-02-09T23:27:52.905Z,61.50
2023-02-09T23:31:07.881Z,61.52
2023-02-09T23:33:55.276Z,61.62
2023-02-09T23:36:42.026Z,61.72
2023-02-09T23:39:28.756Z,61.64
2023-02-09T23:42:16.433Z,61.76
2023-02-09T23:50:59.871Z,62.02
2023-02-09T23:53:47.715Z,62.29
2023-02-09T23:56:37.300Z,62.34
2023-02-09T23:59:24.057Z,62.38
